Time,TemperatureF,DewpointF,PressureIn,WindDirection,WindDirectionDegrees,WindSpeedMPH,WindSpeedGustMPH,Humidity,HourlyPrecipIn,Conditions,Clouds,dailyrainin,SoftwareType,DateUTC
2013-11-29 00:03:00,5.2,1.9,28.31,NE,36,0.0,0.0,86,0.00,,---,0.00,VWS V14.01,2013-11-29 06:03:00,
2013-11-29 00:08:00,4.7,1.2,28.31,NE,36,0.0,0.0,85,0.00,,---,0.00,VWS V14.01,2013-11-29 06:08:00,
2013-11-29 00:13:00,4.4,0.9,28.31,NE,36,0.0,0.0,85,0.00,,---,0.00,VWS V14.01,2013-11-29 06:13:00,
2013-11-29 00:18:00,4.1,0.6,28.31,NE,36,0.0,0.0,85,0.00,,---,0.00,VWS V14.01,2013-11-29 06:18:00,
2013-11-29 00:23:00,3.9,0.4,28.31,NE,36,0.0,0.0,85,0.00,,---,0.00,VWS V14.01,2013-11-29 06:23:00,
2013-11-29 00:28:00,3.5,-0.2,28.31,NE,36,0.0,0.0,84,0.00,,---,0.00,VWS V14.01,2013-11-29 06:28:00,
2013-11-29 00:34:00,2.9,-0.8,28.31,NE,36,0.0,0.0,84,0.00,,---,0.00,VWS V14.01,2013-11-29 06:34:00,
2013-11-29 00:39:00,2.6,-1.1,28.31,NE,36,0.0,0.0,84,0.00,,---,0.00,VWS V14.01,2013-11-29 06:39:00,
2013-11-29 00:44:00,2.2,-1.5,28.31,NE,36,0.0,0.0,84,0.00,,---,0.00,VWS V14.01,2013-11-29 06:44:00,
2013-11-29 00:49:00,1.8,-2.2,28.31,NE,36,0.0,0.0,83,0.00,,---,0.00,VWS V14.01,2013-11-29 06:49:00,
2013-11-29 00:54:00,1.3,-2.7,28.31,NE,36,0.0,0.0,83,0.00,,---,0.00,VWS V14.01,2013-11-29 06:54:00,
2013-11-29 01:00:00,0.9,-3.0,28.31,NE,36,0.0,0.0,83,0.00,,---,0.00,VWS V14.01,2013-11-29 07:00:00,
2013-11-29 01:05:00,0.5,-3.4,28.31,NE,36,0.0,0.0,83,0.00,,---,0.00,VWS V14.01,2013-11-29 07:05:00,
2013-11-29 01:10:00,0.2,-3.5,28.31,NE,36,0.0,0.0,84,0.00,,---,0.00,VWS V14.01,2013-11-29 07:10:00,
2013-11-29 01:15:00,-0.1,-4.0,28.31,NE,36,0.0,0.0,83,0.00,,---,0.00,VWS V14.01,2013-11-29 07:15:00,
2013-11-29 01:20:00,-0.4,-4.3,28.31,NE,36,0.0,0.0,83,0.00,,---,0.00,VWS V14.01,2013-11-29 07:20:00,
2013-11-29 01:25:00,-0.8,-4.7,28.31,NE,36,0.0,0.0,83,0.00,,---,0.00,VWS V14.01,2013-11-29 07:25:00,
2013-11-29 01:31:00,-1.0,-4.9,28.31,NE,36,0.0,0.0,83,0.00,,---,0.00,VWS V14.01,2013-11-29 07:31:00,
2013-11-29 01:36:00,-1.3,-5.2,28.31,NE,36,0.0,0.0,83,0.00,,---,0.00,VWS V14.01,2013-11-29 07:36:00,
2013-11-29 01:41:00,-1.6,-5.5,28.31,NE,36,0.0,0.0,83,0.00,,---,0.00,VWS V14.01,2013-11-29 07:41:00,
2013-11-29 01:46:00,-1.8,-5.7,28.31,NE,36,0.0,0.0,83,0.00,,---,0.00,VWS V14.01,2013-11-29 07:46:00,
2013-11-29 01:51:00,-2.3,-6.2,28.31,NE,36,0.0,0.0,83,0.00,,---,0.00,VWS V14.01,2013-11-29 07:51:00,
2013-11-29 01:57:00,-2.5,-6.4,28.31,NE,36,0.0,0.0,83,0.00,,---,0.00,VWS V14.01,2013-11-29 07:57:00,
2013-11-29 02:02:00,-2.7,-6.6,28.31,NE,36,0.0,0.0,83,0.00,,---,0.00,VWS V14.01,2013-11-29 08:02:00,
2013-11-29 02:07:00,-2.9,-6.8,28.31,NE,36,0.0,0.0,83,0.00,,---,0.00,VWS V14.01,2013-11-29 08:07:00,
2013-11-29 02:12:00,-3.1,-7.0,28.31,NE,36,0.0,0.0,83,0.00,,---,0.00,VWS V14.01,2013-11-29 08:12:00,
2013-11-29 02:18:00,-3.5,-7.4,28.32,NE,36,0.0,0.0,83,0.00,,---,0.00,VWS V14.01,2013-11-29 08:18:00,
2013-11-29 02:23:00,-3.6,-7.5,28.32,NE,36,0.0,0.0,83,0.00,,---,0.00,VWS V14.01,2013-11-29 08:23:00,
2013-11-29 02:28:00,-3.9,-7.8,28.32,NE,36,0.0,0.0,83,0.00,,---,0.00,VWS V14.01,2013-11-29 08:28:00,
2013-11-29 02:33:00,-4.2,-8.3,28.32,NE,36,0.0,0.0,82,0.00,,---,0.00,VWS V14.01,2013-11-29 08:33:00,
2013-11-29 02:38:00,-4.4,-8.5,28.32,NE,36,0.0,0.0,82,0.00,,---,0.00,VWS V14.01,2013-11-29 08:38:00,
2013-11-29 02:44:00,-4.6,-8.7,28.32,NE,36,0.0,0.0,82,0.00,,---,0.00,VWS V14.01,2013-11-29 08:44:00,
2013-11-29 02:49:00,-4.9,-9.0,28.32,NE,36,0.0,0.0,82,0.00,,---,0.00,VWS V14.01,2013-11-29 08:49:00,
2013-11-29 02:54:00,-5.2,-9.3,28.32,NE,36,0.0,0.0,82,0.00,,---,0.00,VWS V14.01,2013-11-29 08:54:00,
2013-11-29 02:59:00,-5.5,-9.6,28.32,NE,36,0.0,0.0,82,0.00,,---,0.00,VWS V14.01,2013-11-29 08:59:00,
2013-11-29 03:04:00,-5.6,-9.7,28.32,NE,36,0.0,0.0,82,0.00,,---,0.00,VWS V14.01,2013-11-29 09:04:00,
2013-11-29 03:09:00,-5.8,-9.9,28.32,NE,36,0.0,0.0,82,0.00,,---,0.00,VWS V14.01,2013-11-29 09:09:00,
2013-11-29 03:15:00,-6.2,-10.5,28.32,NE,36,0.0,0.0,81,0.00,,---,0.00,VWS V14.01,2013-11-29 09:15:00,
2013-11-29 03:20:00,-6.3,-10.4,28.32,NE,36,0.0,0.0,82,0.00,,---,0.00,VWS V14.01,2013-11-29 09:20:00,
2013-11-29 03:25:00,-6.5,-10.6,28.32,NE,36,0.0,0.0,82,0.00,,---,0.00,VWS V14.01,2013-11-29 09:25:00,
2013-11-29 03:30:00,-6.5,-10.6,28.32,NE,36,0.0,0.0,82,0.00,,---,0.00,VWS V14.01,2013-11-29 09:30:00,
2013-11-29 03:35:00,-6.7,-10.7,28.32,NE,36,0.0,0.0,82,0.00,,---,0.00,VWS V14.01,2013-11-29 09:35:00,
2013-11-29 03:41:00,-6.8,-10.8,28.32,NE,36,0.0,0.0,82,0.00,,---,0.00,VWS V14.01,2013-11-29 09:41:00,
2013-11-29 03:46:00,-6.9,-10.9,28.32,NE,36,0.0,0.0,82,0.00,,---,0.00,VWS V14.01,2013-11-29 09:46:00,
2013-11-29 03:51:00,-7.0,-11.0,28.32,NE,36,0.0,0.0,82,0.00,,---,0.00,VWS V14.01,2013-11-29 09:51:00,
2013-11-29 03:56:00,-7.1,-11.1,28.32,NE,36,0.0,0.0,82,0.00,,---,0.00,VWS V14.01,2013-11-29 09:56:00,
2013-11-29 04:01:00,-7.2,-11.2,28.32,NE,36,0.0,0.0,82,0.00,,---,0.00,VWS V14.01,2013-11-29 10:01:00,
2013-11-29 04:06:00,-7.3,-11.6,28.32,NE,36,0.0,0.0,81,0.00,,---,0.00,VWS V14.01,2013-11-29 10:06:00,
2013-11-29 04:11:00,-7.5,-11.8,28.32,NE,36,0.0,0.0,81,0.00,,---,0.00,VWS V14.01,2013-11-29 10:11:00,
2013-11-29 04:16:00,-7.7,-12.0,28.32,NE,36,0.0,0.0,81,0.00,,---,0.00,VWS V14.01,2013-11-29 10:16:00,
2013-11-29 04:22:00,-7.8,-12.1,28.32,NE,36,0.0,0.0,81,0.00,,---,0.00,VWS V14.01,2013-11-29 10:22:00,
2013-11-29 04:27:00,-8.0,-12.3,28.32,NE,36,0.0,0.0,81,0.00,,---,0.00,VWS V14.01,2013-11-29 10:27:00,
2013-11-29 04:32:00,-8.0,-12.0,28.32,NE,36,0.0,0.0,82,0.00,,---,0.00,VWS V14.01,2013-11-29 10:32:00,
2013-11-29 04:37:00,-8.1,-12.4,28.32,NE,36,0.0,0.0,81,0.00,,---,0.00,VWS V14.01,2013-11-29 10:37:00,
2013-11-29 04:42:00,-8.3,-12.6,28.32,NE,36,0.0,0.0,81,0.00,,---,0.00,VWS V14.01,2013-11-29 10:42:00,
2013-11-29 04:48:00,-8.4,-12.6,28.32,NE,36,0.0,0.0,81,0.00,,---,0.00,VWS V14.01,2013-11-29 10:48:00,
2013-11-29 04:53:00,-8.5,-12.8,28.32,NE,36,0.0,0.0,81,0.00,,---,0.00,VWS V14.01,2013-11-29 10:53:00,
2013-11-29 04:58:00,-8.5,-12.8,28.32,NE,36,0.0,0.0,81,0.00,,---,0.00,VWS V14.01,2013-11-29 10:58:00,
2013-11-29 05:03:00,-8.6,-12.6,28.32,NE,36,0.0,0.0,82,0.00,,---,0.00,VWS V14.01,2013-11-29 11:03:00,
2013-11-29 05:08:00,-8.6,-12.6,28.32,NE,36,0.0,0.0,82,0.00,,---,0.00,VWS V14.01,2013-11-29 11:08:00,
2013-11-29 05:14:00,-8.7,-12.7,28.32,NE,36,0.0,0.0,82,0.00,,---,0.00,VWS V14.01,2013-11-29 11:14:00,
2013-11-29 05:19:00,-8.7,-12.7,28.33,NE,36,0.0,0.0,82,0.00,,---,0.00,VWS V14.01,2013-11-29 11:19:00,
2013-11-29 05:24:00,-8.8,-13.0,28.33,NE,36,0.0,0.0,81,0.00,,---,0.00,VWS V14.01,2013-11-29 11:24:00,
2013-11-29 05:29:00,-8.9,-13.1,28.33,NE,36,0.0,0.0,81,0.00,,---,0.00,VWS V14.01,2013-11-29 11:29:00,
2013-11-29 05:34:00,-8.9,-12.9,28.33,NE,36,0.0,0.0,82,0.00,,---,0.00,VWS V14.01,2013-11-29 11:34:00,
2013-11-29 05:39:00,-9.1,-13.3,28.33,NE,36,0.0,0.0,81,0.00,,---,0.00,VWS V14.01,2013-11-29 11:39:00,
2013-11-29 05:45:00,-9.1,-13.3,28.33,NE,36,0.0,0.0,81,0.00,,---,0.00,VWS V14.01,2013-11-29 11:45:00,
2013-11-29 05:50:00,-9.3,-13.5,28.33,NE,36,0.0,0.0,81,0.00,,---,0.00,VWS V14.01,2013-11-29 11:50:00,
2013-11-29 05:55:00,-9.4,-13.6,28.33,NE,36,0.0,0.0,81,0.00,,---,0.00,VWS V14.01,2013-11-29 11:55:00,
2013-11-29 06:00:00,-9.5,-13.7,28.33,NE,36,0.0,0.0,81,0.00,,---,0.00,VWS V14.01,2013-11-29 12:00:00,
2013-11-29 06:05:00,-9.4,-13.6,28.33,NE,36,0.0,0.0,81,0.00,,---,0.00,VWS V14.01,2013-11-29 12:05:00,
2013-11-29 06:10:00,-9.5,-13.7,28.33,NE,36,0.0,0.0,81,0.00,,---,0.00,VWS V14.01,2013-11-29 12:10:00,
2013-11-29 06:15:00,-9.4,-13.4,28.33,NE,36,0.0,0.0,82,0.00,,---,0.00,VWS V14.01,2013-11-29 12:15:00,
2013-11-29 06:20:00,-9.2,-13.2,28.33,NE,36,0.0,0.0,82,0.00,,---,0.00,VWS V14.01,2013-11-29 12:20:00,
2013-11-29 06:25:00,-9.0,-13.0,28.33,NE,36,0.0,0.0,82,0.00,,---,0.00,VWS V14.01,2013-11-29 12:25:00,
2013-11-29 06:30:00,-8.9,-12.9,28.34,NE,36,0.0,0.0,82,0.00,,---,0.00,VWS V14.01,2013-11-29 12:30:00,
2013-11-29 06:36:00,-8.8,-12.8,28.34,NE,36,0.0,0.0,82,0.00,,---,0.00,VWS V14.01,2013-11-29 12:36:00,
2013-11-29 06:41:00,-8.5,-12.5,28.34,NE,36,0.0,0.0,82,0.00,,---,0.00,VWS V14.01,2013-11-29 12:41:00,
2013-11-29 06:46:00,-8.3,-12.1,28.34,NE,36,0.0,0.0,83,0.00,,---,0.00,VWS V14.01,2013-11-29 12:46:00,
2013-11-29 06:51:00,-8.1,-11.9,28.34,NE,36,0.0,0.0,83,0.00,,---,0.00,VWS V14.01,2013-11-29 12:51:00,
2013-11-29 06:56:00,-7.7,-11.5,28.34,NE,36,0.0,0.0,83,0.00,,---,0.00,VWS V14.01,2013-11-29 12:56:00,
2013-11-29 07:01:00,-7.5,-11.3,28.34,NE,36,0.0,0.0,83,0.00,,---,0.00,VWS V14.01,2013-11-29 13:01:00,
2013-11-29 07:07:00,-7.3,-11.1,28.34,NE,36,0.0,0.0,83,0.00,,---,0.00,VWS V14.01,2013-11-29 13:07:00,
2013-11-29 07:12:00,-7.0,-10.8,28.34,NE,36,0.0,0.0,83,0.00,,---,0.00,VWS V14.01,2013-11-29 13:12:00,
2013-11-29 07:17:00,-6.7,-10.3,28.34,NE,36,0.0,0.0,84,0.00,,---,0.00,VWS V14.01,2013-11-29 13:17:00,
2013-11-29 07:22:00,-6.3,-9.9,28.34,NE,36,0.0,0.0,84,0.00,,---,0.00,VWS V14.01,2013-11-29 13:22:00,
2013-11-29 07:27:00,-5.7,-9.0,28.34,NE,36,0.0,0.0,85,0.00,,---,0.00,VWS V14.01,2013-11-29 13:27:00,
2013-11-29 07:32:00,-5.0,-8.3,28.34,NE,36,0.0,0.0,85,0.00,,---,0.00,VWS V14.01,2013-11-29 13:32:00,
2013-11-29 07:38:00,-4.4,-7.8,28.34,NE,36,0.0,0.0,85,0.00,,---,0.00,VWS V14.01,2013-11-29 13:38:00,
2013-11-29 07:43:00,-3.6,-6.7,28.34,NE,36,0.0,0.0,86,0.00,,---,0.00,VWS V14.01,2013-11-29 13:43:00,
2013-11-29 07:48:00,-2.8,-5.9,28.34,NE,36,0.0,0.0,86,0.00,,---,0.00,VWS V14.01,2013-11-29 13:48:00,
2013-11-29 07:53:00,-2.3,-5.4,28.34,NE,36,0.0,0.0,86,0.00,,---,0.00,VWS V14.01,2013-11-29 13:53:00,
2013-11-29 07:58:00,-1.6,-4.8,28.34,NE,36,0.0,0.0,86,0.00,,---,0.00,VWS V14.01,2013-11-29 13:58:00,
2013-11-29 08:04:00,-0.9,-3.8,28.34,NE,36,0.0,0.0,87,0.00,,---,0.00,VWS V14.01,2013-11-29 14:04:00,
2013-11-29 08:09:00,-0.2,-3.1,28.34,NE,36,0.0,0.0,87,0.00,,---,0.00,VWS V14.01,2013-11-29 14:09:00,
2013-11-29 08:14:00,0.5,-2.5,28.34,NE,36,0.0,0.0,87,0.00,,---,0.00,VWS V14.01,2013-11-29 14:14:00,
2013-11-29 08:19:00,1.3,-1.7,28.33,NE,36,0.0,0.0,87,0.00,,---,0.00,VWS V14.01,2013-11-29 14:19:00,
2013-11-29 08:24:00,2.0,-0.7,28.33,NE,36,0.0,0.0,88,0.00,,---,0.00,VWS V14.01,2013-11-29 14:24:00,
2013-11-29 08:29:00,2.9,0.2,28.33,NE,36,0.0,0.0,88,0.00,,---,0.00,VWS V14.01,2013-11-29 14:29:00,
2013-11-29 08:34:00,4.0,1.5,28.33,NE,36,0.0,0.0,89,0.00,,---,0.00,VWS V14.01,2013-11-29 14:34:00,
2013-11-29 08:39:00,5.0,2.5,28.33,NE,36,0.0,0.0,89,0.00,,---,0.00,VWS V14.01,2013-11-29 14:39:00,
2013-11-29 08:44:00,5.7,3.2,28.33,NE,36,0.0,0.0,89,0.00,,---,0.00,VWS V14.01,2013-11-29 14:44:00,
2013-11-29 08:49:00,6.3,3.8,28.34,NE,36,0.0,0.0,89,0.00,,---,0.00,VWS V14.01,2013-11-29 14:49:00,
2013-11-29 08:55:00,7.1,4.6,28.34,NE,36,0.0,0.0,89,0.00,,---,0.00,VWS V14.01,2013-11-29 14:55:00,
2013-11-29 09:00:00,7.8,5.2,28.33,NE,36,0.0,0.0,89,0.00,,---,0.00,VWS V14.01,2013-11-29 15:00:00,
2013-11-29 09:05:00,8.5,5.9,28.33,NE,36,0.0,0.0,89,0.00,,---,0.00,VWS V14.01,2013-11-29 15:05:00,
2013-11-29 09:10:00,9.2,6.6,28.33,NE,36,0.0,0.0,89,0.00,,---,0.00,VWS V14.01,2013-11-29 15:10:00,
2013-11-29 09:15:00,9.9,7.3,28.33,NE,36,0.0,0.0,89,0.00,,---,0.00,VWS V14.01,2013-11-29 15:15:00,
2013-11-29 09:20:00,10.3,7.7,28.33,NE,36,0.0,0.0,89,0.00,,---,0.00,VWS V14.01,2013-11-29 15:20:00,
2013-11-29 09:26:00,11.0,8.4,28.33,NE,36,0.0,0.0,89,0.00,,---,0.00,VWS V14.01,2013-11-29 15:26:00,
2013-11-29 09:31:00,11.6,9.0,28.33,NE,36,0.0,0.0,89,0.00,,---,0.00,VWS V14.01,2013-11-29 15:31:00,
2013-11-29 09:36:00,12.1,9.5,28.33,NE,36,0.0,0.0,89,0.00,,---,0.00,VWS V14.01,2013-11-29 15:36:00,
2013-11-29 09:41:00,12.6,10.0,28.33,NE,36,0.0,0.0,89,0.00,,---,0.00,VWS V14.01,2013-11-29 15:41:00,
2013-11-29 09:46:00,13.1,10.5,28.33,NE,36,0.0,0.0,89,0.00,,---,0.00,VWS V14.01,2013-11-29 15:46:00,
2013-11-29 09:52:00,13.6,11.2,28.33,NE,36,0.0,0.0,90,0.00,,---,0.00,VWS V14.01,2013-11-29 15:52:00,
2013-11-29 09:57:00,13.9,11.3,28.33,NE,36,0.0,0.0,89,0.00,,---,0.00,VWS V14.01,2013-11-29 15:57:00,
2013-11-29 10:02:00,14.1,11.5,28.33,NE,36,0.0,0.0,89,0.00,,---,0.00,VWS V14.01,2013-11-29 16:02:00,
2013-11-29 10:07:00,14.3,11.7,28.33,NE,36,0.0,0.0,89,0.00,,---,0.00,VWS V14.01,2013-11-29 16:07:00,
2013-11-29 10:12:00,14.4,11.8,28.33,NE,36,0.0,0.0,89,0.00,,---,0.00,VWS V14.01,2013-11-29 16:12:00,
2013-11-29 10:18:00,14.4,11.8,28.32,NE,38,1.0,2.0,89,0.00,,---,0.00,VWS V14.01,2013-11-29 16:18:00,
2013-11-29 10:23:00,14.4,11.8,28.32,East,96,2.0,2.0,89,0.00,,---,0.00,VWS V14.01,2013-11-29 16:23:00,
2013-11-29 10:28:00,14.2,11.3,28.32,East,96,0.0,1.0,88,0.00,,---,0.00,VWS V14.01,2013-11-29 16:28:00,
2013-11-29 10:33:00,14.2,11.3,28.32,SSE,157,1.0,1.0,88,0.00,,---,0.00,VWS V14.01,2013-11-29 16:33:00,
2013-11-29 10:38:00,14.2,11.3,28.32,SSE,157,1.0,1.0,88,0.00,,---,0.00,VWS V14.01,2013-11-29 16:38:00,
2013-11-29 10:43:00,14.3,11.7,28.32,SSE,157,1.0,1.0,89,0.00,,---,0.00,VWS V14.01,2013-11-29 16:43:00,
2013-11-29 10:48:00,14.3,11.4,28.31,SSE,152,2.0,2.0,88,0.00,,---,0.00,VWS V14.01,2013-11-29 16:48:00,
2013-11-29 10:53:00,14.4,11.5,28.31,SSE,151,0.0,1.0,88,0.00,,---,0.00,VWS V14.01,2013-11-29 16:53:00,
2013-11-29 10:59:00,14.6,11.7,28.31,SSE,151,0.0,0.0,88,0.00,,---,0.00,VWS V14.01,2013-11-29 16:59:00,
2013-11-29 11:04:00,14.8,11.9,28.30,SSE,151,0.0,0.0,88,0.00,,---,0.00,VWS V14.01,2013-11-29 17:04:00,
2013-11-29 11:09:00,15.0,12.1,28.30,SSE,151,0.0,0.0,88,0.00,,---,0.00,VWS V14.01,2013-11-29 17:09:00,
2013-11-29 11:14:00,15.2,12.3,28.30,SSE,151,1.0,1.0,88,0.00,,---,0.00,VWS V14.01,2013-11-29 17:14:00,
2013-11-29 11:19:00,15.3,12.4,28.30,SSE,151,0.0,2.0,88,0.00,,---,0.00,VWS V14.01,2013-11-29 17:19:00,
2013-11-29 11:24:00,15.5,12.6,28.30,SSE,150,0.0,1.0,88,0.00,,---,0.00,VWS V14.01,2013-11-29 17:24:00,
2013-11-29 11:30:00,15.6,12.7,28.29,SSE,150,0.0,3.0,88,0.00,,---,0.00,VWS V14.01,2013-11-29 17:30:00,
2013-11-29 11:35:00,15.7,12.8,28.29,SSE,150,0.0,0.0,88,0.00,,---,0.00,VWS V14.01,2013-11-29 17:35:00,
2013-11-29 11:40:00,15.9,13.0,28.29,SSE,148,0.0,2.0,88,0.00,,---,0.00,VWS V14.01,2013-11-29 17:40:00,
2013-11-29 11:45:00,16.0,13.1,28.28,SE,132,1.0,4.0,88,0.00,,---,0.00,VWS V14.01,2013-11-29 17:45:00,
2013-11-29 11:50:00,16.1,13.4,28.28,SE,130,4.0,4.0,89,0.00,,---,0.00,VWS V14.01,2013-11-29 17:50:00,
2013-11-29 11:56:00,16.2,13.5,28.28,ESE,120,2.0,2.0,89,0.00,,---,0.00,VWS V14.01,2013-11-29 17:56:00,
2013-11-29 12:01:00,16.3,13.6,28.27,SE,124,0.0,3.0,89,0.00,,---,0.00,VWS V14.01,2013-11-29 18:01:00,
2013-11-29 12:06:00,16.4,13.7,28.27,ESE,123,0.0,1.0,89,0.00,,---,0.00,VWS V14.01,2013-11-29 18:06:00,
2013-11-29 12:11:00,16.4,13.7,28.27,South,184,4.0,7.0,89,0.00,,---,0.00,VWS V14.01,2013-11-29 18:11:00,
2013-11-29 12:16:00,16.5,13.8,28.27,SE,132,3.0,4.0,89,0.00,,---,0.00,VWS V14.01,2013-11-29 18:16:00,
2013-11-29 12:21:00,16.6,13.9,28.27,ESE,120,1.0,4.0,89,0.00,,---,0.00,VWS V14.01,2013-11-29 18:21:00,
2013-11-29 12:26:00,16.9,14.5,28.27,ESE,119,10.0,10.0,90,0.00,,---,0.00,VWS V14.01,2013-11-29 18:26:00,
2013-11-29 12:32:00,17.0,14.3,28.26,SE,146,1.0,2.0,89,0.00,,---,0.00,VWS V14.01,2013-11-29 18:32:00,
2013-11-29 12:37:00,17.2,14.5,28.26,SSE,151,2.0,5.0,89,0.00,,---,0.00,VWS V14.01,2013-11-29 18:37:00,
2013-11-29 12:42:00,17.3,14.9,28.26,SE,132,5.0,5.0,90,0.00,,---,0.00,VWS V14.01,2013-11-29 18:42:00,
2013-11-29 12:47:00,17.5,15.1,28.25,SE,130,3.0,8.0,90,0.00,,---,0.00,VWS V14.01,2013-11-29 18:47:00,
2013-11-29 12:52:00,17.7,15.3,28.25,SE,130,5.0,7.0,90,0.00,,---,0.00,VWS V14.01,2013-11-29 18:52:00,
2013-11-29 12:57:00,17.9,15.5,28.25,SE,133,5.0,7.0,90,0.00,,---,0.00,VWS V14.01,2013-11-29 18:57:00,
2013-11-29 13:03:00,18.1,15.7,28.24,SSE,150,1.0,3.0,90,0.00,,---,0.00,VWS V14.01,2013-11-29 19:03:00,
2013-11-29 13:08:00,18.2,15.8,28.24,ESE,105,3.0,5.0,90,0.00,,---,0.00,VWS V14.01,2013-11-29 19:08:00,
2013-11-29 13:13:00,18.3,15.9,28.24,SSE,147,5.0,5.0,90,0.00,,---,0.00,VWS V14.01,2013-11-29 19:13:00,
2013-11-29 13:18:00,18.4,16.0,28.23,SE,137,2.0,6.0,90,0.00,,---,0.00,VWS V14.01,2013-11-29 19:18:00,
2013-11-29 13:23:00,18.5,16.1,28.23,SE,131,1.0,4.0,90,0.00,,---,0.00,VWS V14.01,2013-11-29 19:23:00,
2013-11-29 13:28:00,18.6,16.2,28.23,SE,145,2.0,5.0,90,0.00,,---,0.00,VWS V14.01,2013-11-29 19:28:00,
2013-11-29 13:34:00,18.8,16.6,28.23,South,169,3.0,3.0,91,0.00,,---,0.00,VWS V14.01,2013-11-29 19:34:00,
2013-11-29 13:39:00,19.0,16.8,28.23,East,82,2.0,3.0,91,0.00,,---,0.00,VWS V14.01,2013-11-29 19:39:00,
2013-11-29 13:44:00,19.1,16.9,28.23,SSE,155,3.0,4.0,91,0.00,,---,0.00,VWS V14.01,2013-11-29 19:44:00,
2013-11-29 13:49:00,19.3,17.1,28.22,SSE,155,5.0,7.0,91,0.00,,---,0.00,VWS V14.01,2013-11-29 19:49:00,
2013-11-29 13:54:00,19.4,17.2,28.22,SSE,153,1.0,5.0,91,0.00,,---,0.00,VWS V14.01,2013-11-29 19:54:00,
2013-11-29 13:59:00,19.5,17.3,28.22,SSE,152,3.0,4.0,91,0.00,,---,0.00,VWS V14.01,2013-11-29 19:59:00,
2013-11-29 14:05:00,19.7,17.5,28.21,SSE,164,3.0,3.0,91,0.00,,---,0.00,VWS V14.01,2013-11-29 20:05:00,
2013-11-29 14:10:00,19.7,17.5,28.21,SSE,164,1.0,5.0,91,0.00,,---,0.00,VWS V14.01,2013-11-29 20:10:00,
2013-11-29 14:15:00,19.7,17.5,28.21,SE,146,4.0,4.0,91,0.00,,---,0.00,VWS V14.01,2013-11-29 20:15:00,
2013-11-29 14:20:00,19.8,17.6,28.21,SSE,163,1.0,5.0,91,0.00,,---,0.00,VWS V14.01,2013-11-29 20:20:00,
2013-11-29 14:25:00,20.0,18.0,28.21,SE,144,1.0,4.0,92,0.00,,---,0.00,VWS V14.01,2013-11-29 20:25:00,
2013-11-29 14:30:00,20.1,18.1,28.20,SE,141,3.0,3.0,92,0.00,,---,0.00,VWS V14.01,2013-11-29 20:30:00,
2013-11-29 14:36:00,20.2,18.2,28.20,South,181,0.0,2.0,92,0.00,,---,0.00,VWS V14.01,2013-11-29 20:36:00,
2013-11-29 14:41:00,20.3,18.4,28.20,SSE,157,3.0,6.0,92,0.00,,---,0.00,VWS V14.01,2013-11-29 20:41:00,
2013-11-29 14:46:00,20.5,18.5,28.20,SSE,158,1.0,3.0,92,0.00,,---,0.00,VWS V14.01,2013-11-29 20:46:00,
2013-11-29 14:51:00,20.6,18.6,28.20,South,170,3.0,4.0,92,0.00,,---,0.00,VWS V14.01,2013-11-29 20:51:00,
2013-11-29 14:56:00,20.8,18.9,28.20,South,171,1.0,3.0,92,0.00,,---,0.00,VWS V14.01,2013-11-29 20:56:00,
2013-11-29 15:02:00,20.9,19.0,28.19,ESE,120,2.0,2.0,92,0.00,,---,0.00,VWS V14.01,2013-11-29 21:02:00,
2013-11-29 15:07:00,20.9,19.0,28.19,SSW,193,1.0,4.0,92,0.00,,---,0.00,VWS V14.01,2013-11-29 21:07:00,
2013-11-29 15:12:00,20.9,19.0,28.19,SSE,159,3.0,7.0,92,0.00,,---,0.00,VWS V14.01,2013-11-29 21:12:00,
2013-11-29 15:17:00,20.8,18.9,28.18,SSE,158,3.0,5.0,92,0.00,,---,0.00,VWS V14.01,2013-11-29 21:17:00,
2013-11-29 15:23:00,20.8,18.9,28.18,SSE,165,1.0,4.0,92,0.00,,---,0.00,VWS V14.01,2013-11-29 21:23:00,
2013-11-29 15:28:00,20.7,18.5,28.18,South,187,1.0,3.0,91,0.00,,---,0.00,VWS V14.01,2013-11-29 21:28:00,
2013-11-29 15:33:00,20.7,18.5,28.17,SSE,163,2.0,7.0,91,0.00,,---,0.00,VWS V14.01,2013-11-29 21:33:00,
2013-11-29 15:38:00,20.6,18.4,28.17,South,169,1.0,2.0,91,0.00,,---,0.00,VWS V14.01,2013-11-29 21:38:00,
2013-11-29 15:43:00,20.6,18.4,28.17,SE,128,2.0,4.0,91,0.00,,---,0.00,VWS V14.01,2013-11-29 21:43:00,
2013-11-29 15:48:00,20.6,18.4,28.17,SSE,165,2.0,3.0,91,0.00,,---,0.00,VWS V14.01,2013-11-29 21:48:00,
2013-11-29 15:53:00,20.5,18.3,28.17,SSE,164,3.0,4.0,91,0.00,,---,0.00,VWS V14.01,2013-11-29 21:53:00,
2013-11-29 15:58:00,20.4,17.9,28.17,SSW,208,4.0,4.0,90,0.00,,---,0.00,VWS V14.01,2013-11-29 21:58:00,
2013-11-29 16:04:00,20.4,17.9,28.16,SSE,147,5.0,5.0,90,0.00,,---,0.00,VWS V14.01,2013-11-29 22:04:00,
2013-11-29 16:09:00,20.3,17.8,28.16,SSE,160,3.0,3.0,90,0.00,,---,0.00,VWS V14.01,2013-11-29 22:09:00,
2013-11-29 16:14:00,20.3,17.8,28.16,SSE,154,1.0,6.0,90,0.00,,---,0.00,VWS V14.01,2013-11-29 22:14:00,
2013-11-29 16:19:00,20.3,17.8,28.15,South,169,6.0,6.0,90,0.00,,---,0.00,VWS V14.01,2013-11-29 22:19:00,
2013-11-29 16:24:00,20.3,17.6,28.15,SSW,195,6.0,6.0,89,0.00,,---,0.00,VWS V14.01,2013-11-29 22:24:00,
2013-11-29 16:29:00,20.2,17.5,28.15,South,170,5.0,6.0,89,0.00,,---,0.00,VWS V14.01,2013-11-29 22:29:00,
2013-11-29 16:34:00,20.2,17.5,28.15,South,184,9.0,9.0,89,0.00,,---,0.00,VWS V14.01,2013-11-29 22:34:00,
2013-11-29 16:39:00,20.2,17.5,28.15,SSE,155,9.0,9.0,89,0.00,,---,0.00,VWS V14.01,2013-11-29 22:39:00,
2013-11-29 16:45:00,20.2,17.5,28.15,SSE,168,5.0,6.0,89,0.00,,---,0.00,VWS V14.01,2013-11-29 22:45:00,
2013-11-29 16:50:00,20.2,17.5,28.15,South,184,2.0,5.0,89,0.00,,---,0.00,VWS V14.01,2013-11-29 22:50:00,
2013-11-29 16:55:00,20.2,17.5,28.15,SSE,159,3.0,3.0,89,0.00,,---,0.00,VWS V14.01,2013-11-29 22:55:00,
2013-11-29 17:00:00,20.2,17.5,28.14,South,177,3.0,5.0,89,0.00,,---,0.00,VWS V14.01,2013-11-29 23:00:00,
2013-11-29 17:05:00,20.2,17.5,28.14,SSE,165,1.0,4.0,89,0.00,,---,0.00,VWS V14.01,2013-11-29 23:05:00,
2013-11-29 17:10:00,20.2,17.5,28.14,South,169,2.0,3.0,89,0.00,,---,0.00,VWS V14.01,2013-11-29 23:10:00,
2013-11-29 17:15:00,20.3,17.6,28.14,SSE,163,3.0,8.0,89,0.00,,---,0.00,VWS V14.01,2013-11-29 23:15:00,
2013-11-29 17:20:00,20.3,17.6,28.14,SSE,156,2.0,4.0,89,0.00,,---,0.00,VWS V14.01,2013-11-29 23:20:00,
2013-11-29 17:25:00,20.3,17.6,28.14,SSE,163,4.0,10.0,89,0.00,,---,0.00,VWS V14.01,2013-11-29 23:25:00,
2013-11-29 17:31:00,20.3,17.8,28.13,SSE,160,2.0,2.0,90,0.00,,---,0.00,VWS V14.01,2013-11-29 23:31:00,
2013-11-29 17:36:00,20.3,17.8,28.13,SSE,151,4.0,4.0,90,0.00,,---,0.00,VWS V14.01,2013-11-29 23:36:00,
2013-11-29 17:41:00,20.3,17.8,28.13,SSW,200,4.0,9.0,90,0.00,,---,0.00,VWS V14.01,2013-11-29 23:41:00,
2013-11-29 17:46:00,20.4,17.9,28.11,SSE,164,3.0,7.0,90,0.00,,---,0.00,VWS V14.01,2013-11-29 23:46:00,
2013-11-29 17:52:00,20.4,17.9,28.11,South,180,1.0,1.0,90,0.00,,---,0.00,VWS V14.01,2013-11-29 23:52:00,
2013-11-29 17:57:00,20.5,18.0,28.11,South,180,2.0,8.0,90,0.00,,---,0.00,VWS V14.01,2013-11-29 23:57:00,
2013-11-29 18:02:00,20.6,18.1,28.11,SSE,162,1.0,5.0,90,0.00,,---,0.00,VWS V14.01,2013-11-30 00:02:00,
2013-11-29 18:07:00,20.6,18.1,28.11,SSE,161,6.0,6.0,90,0.00,,---,0.00,VWS V14.01,2013-11-30 00:07:00,
2013-11-29 18:12:00,20.7,18.2,28.11,South,169,1.0,3.0,90,0.00,,---,0.00,VWS V14.01,2013-11-30 00:12:00,
2013-11-29 18:17:00,20.8,18.3,28.10,South,178,2.0,7.0,90,0.00,,---,0.00,VWS V14.01,2013-11-30 00:17:00,
2013-11-29 18:22:00,20.9,18.4,28.10,SSW,202,5.0,7.0,90,0.00,,---,0.00,VWS V14.01,2013-11-30 00:22:00,
2013-11-29 18:27:00,20.9,18.4,28.10,South,190,4.0,8.0,90,0.00,,---,0.00,VWS V14.01,2013-11-30 00:27:00,
2013-11-29 18:33:00,21.0,18.5,28.09,SE,145,4.0,4.0,90,0.00,,---,0.00,VWS V14.01,2013-11-30 00:33:00,
2013-11-29 18:38:00,21.1,18.6,28.09,SSE,159,3.0,9.0,90,0.00,,---,0.00,VWS V14.01,2013-11-30 00:38:00,
2013-11-29 18:43:00,21.1,18.6,28.09,SSE,161,4.0,4.0,90,0.00,,---,0.00,VWS V14.01,2013-11-30 00:43:00,
2013-11-29 18:48:00,21.2,18.7,28.09,SE,133,7.0,7.0,90,0.00,,---,0.00,VWS V14.01,2013-11-30 00:48:00,
2013-11-29 18:53:00,21.2,18.7,28.09,SSE,153,4.0,5.0,90,0.00,,---,0.00,VWS V14.01,2013-11-30 00:53:00,
2013-11-29 18:58:00,21.3,18.6,28.09,SSE,152,3.0,5.0,89,0.00,,---,0.00,VWS V14.01,2013-11-30 00:58:00,
2013-11-29 19:03:00,21.3,18.6,28.08,SSE,160,4.0,7.0,89,0.00,,---,0.00,VWS V14.01,2013-11-30 01:03:00,
2013-11-29 19:09:00,21.3,18.6,28.08,SSE,161,2.0,6.0,89,0.00,,---,0.00,VWS V14.01,2013-11-30 01:09:00,
2013-11-29 19:14:00,21.3,18.6,28.08,South,186,3.0,8.0,89,0.00,,---,0.00,VWS V14.01,2013-11-30 01:14:00,
2013-11-29 19:19:00,21.4,18.7,28.09,South,190,4.0,7.0,89,0.00,,---,0.00,VWS V14.01,2013-11-30 01:19:00,
2013-11-29 19:24:00,21.3,18.6,28.09,South,182,4.0,4.0,89,0.00,,---,0.00,VWS V14.01,2013-11-30 01:24:00,
2013-11-29 19:29:00,21.3,18.6,28.09,SSW,198,0.0,6.0,89,0.00,,---,0.00,VWS V14.01,2013-11-30 01:29:00,
2013-11-29 19:34:00,21.3,18.6,28.09,SSE,164,3.0,4.0,89,0.00,,---,0.00,VWS V14.01,2013-11-30 01:34:00,
2013-11-29 19:39:00,21.3,18.6,28.09,South,182,8.0,8.0,89,0.00,,---,0.00,VWS V14.01,2013-11-30 01:39:00,
2013-11-29 19:45:00,21.3,18.6,28.09,South,173,0.0,0.0,89,0.00,,---,0.00,VWS V14.01,2013-11-30 01:45:00,
2013-11-29 19:50:00,21.3,18.3,28.09,South,171,2.0,2.0,88,0.00,,---,0.00,VWS V14.01,2013-11-30 01:50:00,
2013-11-29 19:55:00,21.3,18.3,28.09,South,173,1.0,3.0,88,0.00,,---,0.00,VWS V14.01,2013-11-30 01:55:00,
2013-11-29 20:00:00,21.2,18.2,28.08,South,186,2.0,6.0,88,0.00,,---,0.00,VWS V14.01,2013-11-30 02:00:00,
2013-11-29 20:05:00,21.2,18.2,28.08,South,175,2.0,4.0,88,0.00,,---,0.00,VWS V14.01,2013-11-30 02:05:00,
2013-11-29 20:10:00,21.1,18.1,28.08,SW,227,7.0,7.0,88,0.00,,---,0.00,VWS V14.01,2013-11-30 02:10:00,
2013-11-29 20:15:00,21.1,18.1,28.08,South,169,0.0,6.0,88,0.00,,---,0.00,VWS V14.01,2013-11-30 02:15:00,
2013-11-29 20:20:00,21.0,18.0,28.08,SSW,198,1.0,2.0,88,0.00,,---,0.00,VWS V14.01,2013-11-30 02:20:00,
2013-11-29 20:25:00,21.0,18.0,28.08,SSE,168,4.0,5.0,88,0.00,,---,0.00,VWS V14.01,2013-11-30 02:25:00,
2013-11-29 20:30:00,20.9,17.9,28.07,SSW,209,3.0,6.0,88,0.00,,---,0.00,VWS V14.01,2013-11-30 02:30:00,
2013-11-29 20:35:00,20.9,17.9,28.07,SSW,194,1.0,6.0,88,0.00,,---,0.00,VWS V14.01,2013-11-30 02:35:00,
2013-11-29 20:41:00,20.8,17.8,28.07,WSW,242,7.0,7.0,88,0.00,,---,0.00,VWS V14.01,2013-11-30 02:41:00,
2013-11-29 20:46:00,20.8,17.8,28.06,South,188,1.0,4.0,88,0.00,,---,0.00,VWS V14.01,2013-11-30 02:46:00,
2013-11-29 20:51:00,20.8,17.8,28.06,South,188,1.0,1.0,88,0.00,,---,0.00,VWS V14.01,2013-11-30 02:51:00,
2013-11-29 20:56:00,20.8,17.8,28.06,South,181,3.0,5.0,88,0.00,,---,0.00,VWS V14.01,2013-11-30 02:56:00,
2013-11-29 21:01:00,20.8,17.8,28.06,SSW,199,4.0,4.0,88,0.00,,---,0.00,VWS V14.01,2013-11-30 03:01:00,
2013-11-29 21:07:00,20.7,18.0,28.06,South,183,3.0,6.0,89,0.00,,---,0.00,VWS V14.01,2013-11-30 03:07:00,
2013-11-29 21:12:00,20.7,17.7,28.06,SW,215,3.0,3.0,88,0.00,,---,0.00,VWS V14.01,2013-11-30 03:12:00,
2013-11-29 21:17:00,20.7,17.7,28.06,SSW,192,3.0,4.0,88,0.00,,---,0.00,VWS V14.01,2013-11-30 03:17:00,
2013-11-29 21:22:00,20.7,17.7,28.06,SSW,213,4.0,4.0,88,0.00,,---,0.00,VWS V14.01,2013-11-30 03:22:00,
2013-11-29 21:27:00,20.7,17.7,28.06,South,183,0.0,6.0,88,0.00,,---,0.00,VWS V14.01,2013-11-30 03:27:00,
2013-11-29 21:32:00,20.6,17.6,28.06,South,171,3.0,4.0,88,0.00,,---,0.00,VWS V14.01,2013-11-30 03:32:00,
2013-11-29 21:37:00,20.5,17.5,28.06,SSE,167,0.0,4.0,88,0.00,,---,0.00,VWS V14.01,2013-11-30 03:37:00,
2013-11-29 21:42:00,20.5,17.8,28.06,South,180,2.0,4.0,89,0.00,,---,0.00,VWS V14.01,2013-11-30 03:42:00,
2013-11-29 21:48:00,20.5,17.8,28.06,South,185,0.0,0.0,89,0.00,,---,0.00,VWS V14.01,2013-11-30 03:48:00,
2013-11-29 21:53:00,20.6,17.9,28.06,South,175,1.0,2.0,89,0.00,,---,0.00,VWS V14.01,2013-11-30 03:53:00,
2013-11-29 21:58:00,20.7,18.0,28.06,South,173,0.0,3.0,89,0.00,,---,0.00,VWS V14.01,2013-11-30 03:58:00,
2013-11-29 22:03:00,20.6,17.9,28.05,SSE,161,4.0,7.0,89,0.00,,---,0.00,VWS V14.01,2013-11-30 04:03:00,
2013-11-29 22:08:00,20.7,18.0,28.05,South,188,1.0,4.0,89,0.00,,---,0.00,VWS V14.01,2013-11-30 04:08:00,
2013-11-29 22:13:00,20.7,18.0,28.05,SSE,164,2.0,3.0,89,0.00,,---,0.00,VWS V14.01,2013-11-30 04:13:00,
2013-11-29 22:19:00,20.8,18.1,28.05,SSE,163,4.0,4.0,89,0.00,,---,0.00,VWS V14.01,2013-11-30 04:19:00,
2013-11-29 22:24:00,20.9,18.2,28.05,South,181,0.0,1.0,89,0.00,,---,0.00,VWS V14.01,2013-11-30 04:24:00,
2013-11-29 22:29:00,20.9,18.2,28.05,SSW,198,1.0,2.0,89,0.00,,---,0.00,VWS V14.01,2013-11-30 04:29:00,
2013-11-29 22:34:00,21.0,18.3,28.04,SSE,155,4.0,6.0,89,0.00,,---,0.00,VWS V14.01,2013-11-30 04:34:00,
2013-11-29 22:39:00,21.0,18.3,28.04,SSE,156,3.0,5.0,89,0.00,,---,0.00,VWS V14.01,2013-11-30 04:39:00,
2013-11-29 22:44:00,21.1,18.4,28.04,South,182,2.0,4.0,89,0.00,,---,0.00,VWS V14.01,2013-11-30 04:44:00,
2013-11-29 22:50:00,21.2,18.5,28.03,SSW,205,5.0,5.0,89,0.00,,---,0.00,VWS V14.01,2013-11-30 04:50:00,
2013-11-29 22:55:00,21.2,18.5,28.03,South,171,3.0,4.0,89,0.00,,---,0.00,VWS V14.01,2013-11-30 04:55:00,
2013-11-29 23:00:00,21.3,18.6,28.03,South,170,2.0,3.0,89,0.00,,---,0.00,VWS V14.01,2013-11-30 05:00:00,
2013-11-29 23:01:00,21.3,18.6,28.03,South,180,7.0,7.0,89,0.00,,---,0.00,VWS V14.01,2013-11-30 05:01:00,
2013-11-29 23:02:00,21.3,18.6,28.03,SSE,168,4.0,4.0,89,0.00,,---,0.00,VWS V14.01,2013-11-30 05:02:00,
2013-11-29 23:03:00,21.3,18.6,28.03,SSE,157,7.0,7.0,89,0.00,,---,0.00,VWS V14.01,2013-11-30 05:03:00,
2013-11-29 23:04:00,21.3,18.6,28.03,South,172,3.0,7.0,89,0.00,,---,0.00,VWS V14.01,2013-11-30 05:04:00,
2013-11-29 23:09:00,21.4,18.7,28.03,South,172,1.0,1.0,89,0.00,,---,0.00,VWS V14.01,2013-11-30 05:09:00,
2013-11-29 23:14:00,21.4,18.7,28.03,South,178,3.0,6.0,89,0.00,,---,0.00,VWS V14.01,2013-11-30 05:14:00,
2013-11-29 23:19:00,21.5,18.8,28.03,South,188,4.0,6.0,89,0.00,,---,0.00,VWS V14.01,2013-11-30 05:19:00,
2013-11-29 23:24:00,21.5,19.0,28.03,South,173,1.0,3.0,90,0.00,,---,0.00,VWS V14.01,2013-11-30 05:24:00,
2013-11-29 23:29:00,21.4,18.9,28.03,South,182,2.0,7.0,90,0.00,,---,0.00,VWS V14.01,2013-11-30 05:29:00,
2013-11-29 23:34:00,21.4,18.9,28.02,South,175,3.0,3.0,90,0.00,,---,0.00,VWS V14.01,2013-11-30 05:34:00,
2013-11-29 23:39:00,21.4,19.2,28.02,South,173,4.0,7.0,91,0.00,,---,0.00,VWS V14.01,2013-11-30 05:39:00,
2013-11-29 23:45:00,21.4,19.2,28.01,South,182,3.0,3.0,91,0.00,,---,0.00,VWS V14.01,2013-11-30 05:45:00,
2013-11-29 23:50:00,21.5,19.5,28.01,South,175,2.0,3.0,92,0.00,,---,0.00,VWS V14.01,2013-11-30 05:50:00,
2013-11-29 23:55:00,21.5,19.5,28.01,South,184,3.0,4.0,92,0.00,,---,0.00,VWS V14.01,2013-11-30 05:55:00,